createdAt,value
2022-08-26T00:00:19.809Z,4.10
2022-08-26T00:02:48.219Z,4.40
2022-08-26T00:05:16.658Z,4.30
2022-08-26T00:07:46.664Z,5.00
2022-08-26T00:10:15.672Z,4.50
2022-08-26T00:12:43.976Z,3.57
2022-08-26T00:15:15.586Z,4.23
2022-08-26T00:17:44.011Z,4.13
2022-08-26T00:20:14.253Z,4.27
2022-08-26T00:22:42.489Z,4.30
2022-08-26T00:25:12.675Z,4.23
2022-08-26T00:27:41.216Z,5.20
2022-08-26T00:30:13.453Z,4.67
2022-08-26T00:32:41.748Z,4.60
2022-08-26T00:35:14.989Z,4.50
2022-08-26T00:37:43.796Z,4.47
2022-08-26T00:40:16.500Z,3.93
2022-08-26T00:42:46.102Z,4.70
2022-08-26T00:45:15.774Z,4.17
2022-08-26T00:47:47.796Z,4.17
2022-08-26T00:50:19.677Z,4.00
2022-08-26T00:52:49.116Z,3.87
2022-08-26T00:55:24.967Z,3.83
2022-08-26T00:57:56.775Z,4.20
2022-08-26T01:00:28.507Z,4.00
2022-08-26T01:02:58.926Z,4.40
2022-08-26T01:05:27.323Z,4.70
2022-08-26T01:07:55.654Z,3.70
2022-08-26T01:10:30.151Z,4.00
2022-08-26T01:13:01.575Z,4.10
2022-08-26T01:15:35.588Z,4.20
2022-08-26T01:18:05.993Z,3.93
2022-08-26T01:20:42.371Z,4.60
2022-08-26T01:23:13.216Z,5.00
2022-08-26T01:25:46.440Z,4.43
2022-08-26T01:28:18.338Z,4.73
2022-08-26T01:30:48.016Z,4.00
2022-08-26T01:33:20.455Z,4.33
2022-08-26T01:35:49.032Z,4.80
2022-08-26T01:38:19.533Z,3.77
2022-08-26T01:40:48.444Z,3.93
2022-08-26T01:43:22.532Z,4.27
2022-08-26T01:45:54.793Z,4.80
2022-08-26T01:48:28.569Z,4.70
2022-08-26T01:50:57.486Z,4.37
2022-08-26T01:53:28.383Z,4.43
2022-08-26T01:55:59.979Z,3.97
2022-08-26T01:58:33.859Z,4.57
2022-08-26T02:01:03.513Z,4.27
2022-08-26T02:03:33.073Z,4.90
2022-08-26T02:06:09.222Z,4.43
2022-08-26T02:08:44.656Z,4.30
2022-08-26T02:11:13.727Z,4.07
2022-08-26T02:13:47.245Z,4.50
2022-08-26T02:16:19.068Z,4.40
2022-08-26T02:18:48.942Z,4.30
2022-08-26T02:21:21.123Z,4.07
2022-08-26T02:23:52.072Z,3.90
2022-08-26T02:26:22.664Z,4.20
2022-08-26T02:28:55.472Z,4.10
2022-08-26T02:31:23.850Z,4.47
2022-08-26T02:33:52.305Z,4.40
2022-08-26T02:36:22.083Z,4.80
2022-08-26T02:38:52.179Z,4.07
2022-08-26T02:41:20.544Z,3.60
2022-08-26T02:43:51.568Z,4.20
2022-08-26T02:46:27.799Z,4.33
2022-08-26T02:48:58.220Z,4.17
2022-08-26T02:51:26.802Z,4.00
2022-08-26T02:53:56.922Z,4.80
2022-08-26T02:56:25.603Z,4.90
2022-08-26T02:58:53.874Z,4.03
2022-08-26T03:01:23.875Z,4.10
2022-08-26T03:03:52.213Z,4.60
2022-08-26T03:06:20.507Z,3.73
2022-08-26T03:08:49.027Z,4.60
2022-08-26T03:11:19.762Z,4.23
2022-08-26T03:13:48.172Z,4.30
2022-08-26T03:16:16.580Z,4.20
2022-08-26T03:18:52.056Z,5.00
2022-08-26T03:21:22.227Z,4.13
2022-08-26T03:23:50.420Z,4.37
2022-08-26T03:26:20.905Z,4.43
2022-08-26T03:29:06.561Z,4.00
2022-08-26T03:31:34.982Z,4.87
2022-08-26T03:34:03.531Z,4.87
2022-08-26T03:36:32.137Z,4.70
2022-08-26T03:39:03.618Z,4.60
2022-08-26T03:41:34.936Z,4.93
2022-08-26T03:44:03.898Z,4.43
2022-08-26T03:46:33.574Z,4.73
2022-08-26T03:49:05.394Z,4.60
2022-08-26T03:51:34.870Z,4.27
2022-08-26T03:54:08.455Z,4.60
2022-08-26T03:56:38.845Z,4.60
2022-08-26T03:59:08.497Z,4.47
2022-08-26T04:01:36.822Z,4.60
2022-08-26T04:04:06.482Z,5.13
2022-08-26T04:06:38.503Z,5.53
2022-08-26T04:09:08.474Z,4.70
2022-08-26T04:11:39.719Z,5.20
2022-08-26T04:14:10.591Z,4.53
2022-08-26T04:16:39.005Z,4.40
2022-08-26T04:19:07.461Z,4.83
2022-08-26T04:21:38.197Z,4.70
2022-08-26T04:24:11.368Z,4.67
2022-08-26T04:26:43.782Z,5.77
2022-08-26T04:29:14.173Z,5.53
2022-08-26T04:31:42.786Z,5.00
2022-08-26T04:34:11.666Z,5.20
2022-08-26T04:36:43.090Z,5.30
2022-08-26T04:39:14.952Z,5.70
2022-08-26T04:41:45.374Z,4.47
2022-08-26T04:44:13.811Z,5.20
2022-08-26T04:46:43.961Z,5.23
2022-08-26T04:49:12.939Z,4.60
2022-08-26T04:51:41.623Z,5.13
2022-08-26T04:54:12.352Z,5.13
2022-08-26T04:56:44.002Z,4.67
2022-08-26T04:59:18.281Z,4.73
2022-08-26T05:01:48.651Z,5.27
2022-08-26T05:04:19.013Z,4.67
2022-08-26T05:06:47.797Z,4.60
2022-08-26T05:09:16.278Z,4.37
2022-08-26T05:11:45.653Z,4.97
2022-08-26T05:14:18.819Z,4.90
2022-08-26T05:16:47.946Z,5.20
2022-08-26T05:19:19.202Z,5.30
2022-08-26T05:21:48.374Z,5.80
2022-08-26T05:24:16.717Z,4.70
2022-08-26T05:26:45.142Z,5.17
2022-08-26T05:29:14.287Z,4.90
2022-08-26T05:31:44.245Z,5.30
2022-08-26T05:34:12.758Z,5.03
2022-08-26T05:36:41.325Z,5.20
2022-08-26T05:39:10.668Z,5.63
2022-08-26T05:41:41.101Z,5.93
2022-08-26T05:44:12.743Z,5.00
2022-08-26T05:46:45.122Z,5.60
2022-08-26T05:49:15.921Z,5.20
2022-08-26T05:51:47.478Z,5.23
2022-08-26T05:54:22.304Z,4.83
2022-08-26T05:56:51.825Z,5.43
2022-08-26T05:59:24.664Z,5.70
2022-08-26T06:01:55.162Z,4.87
2022-08-26T06:04:26.908Z,5.60
2022-08-26T06:06:56.495Z,5.60
2022-08-26T06:09:25.026Z,5.57
2022-08-26T06:11:53.596Z,6.10
2022-08-26T06:14:22.214Z,5.20
2022-08-26T06:16:50.420Z,5.53
2022-08-26T06:19:21.694Z,5.47
2022-08-26T06:21:54.157Z,5.53
2022-08-26T06:24:40.937Z,4.77
2022-08-26T06:27:13.750Z,6.10
2022-08-26T06:29:42.620Z,6.03
2022-08-26T06:32:11.080Z,5.67
2022-08-26T06:34:41.264Z,5.57
2022-08-26T06:37:09.899Z,5.90
2022-08-26T06:39:41.050Z,6.03
2022-08-26T06:42:11.011Z,6.47
2022-08-26T06:44:41.721Z,6.90
2022-08-26T06:47:13.119Z,6.00
2022-08-26T06:49:42.749Z,6.20
2022-08-26T06:52:12.631Z,6.83
2022-08-26T06:54:43.196Z,5.57
2022-08-26T06:57:14.253Z,5.60
2022-08-26T06:59:45.111Z,6.47
2022-08-26T07:02:13.776Z,6.37
2022-08-26T07:04:44.651Z,6.20
2022-08-26T07:07:16.723Z,6.87
2022-08-26T07:09:45.883Z,6.10
2022-08-26T07:12:14.082Z,5.70
2022-08-26T07:14:47.550Z,6.40
2022-08-26T07:17:16.688Z,5.30
2022-08-26T07:19:46.560Z,5.30
2022-08-26T07:22:14.997Z,5.00
2022-08-26T07:24:44.523Z,5.40
2022-08-26T07:27:14.857Z,4.60
2022-08-26T07:29:44.799Z,4.57
2022-08-26T07:32:14.805Z,5.57
2022-08-26T07:34:45.500Z,5.50
2022-08-26T07:37:13.860Z,5.40
2022-08-26T07:39:44.339Z,4.70
2022-08-26T07:42:14.855Z,5.07
2022-08-26T07:44:44.610Z,5.57
2022-08-26T07:47:25.115Z,4.50
2022-08-26T07:49:58.019Z,5.07
2022-08-26T07:52:28.295Z,4.77
2022-08-26T07:54:58.285Z,5.07
2022-08-26T07:57:26.587Z,4.60
2022-08-26T07:59:55.644Z,4.70
2022-08-26T08:02:25.433Z,4.57
2022-08-26T08:04:55.313Z,4.80
2022-08-26T08:07:35.031Z,4.50
2022-08-26T08:10:15.087Z,4.23
2022-08-26T08:12:44.570Z,4.57
2022-08-26T08:15:14.692Z,5.03
2022-08-26T08:17:44.070Z,5.17
2022-08-26T08:20:15.360Z,4.50
2022-08-26T08:22:44.053Z,5.17
2022-08-26T08:25:13.863Z,5.00
2022-08-26T08:27:45.147Z,4.80
2022-08-26T08:30:14.461Z,5.47
2022-08-26T08:32:44.400Z,5.47
2022-08-26T08:35:16.328Z,4.70
2022-08-26T08:37:45.409Z,4.20
2022-08-26T08:40:18.386Z,5.00
2022-08-26T08:45:24.512Z,4.83
2022-08-26T08:47:55.890Z,4.73
2022-08-26T08:50:29.894Z,4.50
2022-08-26T08:53:05.770Z,5.20
2022-08-26T08:55:45.398Z,4.83
2022-08-26T08:58:19.161Z,5.10
2022-08-26T09:00:55.033Z,4.70
2022-08-26T09:03:48.741Z,4.90
2022-08-26T09:06:18.981Z,4.50
2022-08-26T09:08:50.092Z,4.90
2022-08-26T09:11:20.241Z,5.67
2022-08-26T09:13:51.932Z,5.37
2022-08-26T09:16:25.356Z,5.10
2022-08-26T09:19:14.599Z,4.20
2022-08-26T09:21:56.837Z,5.57
2022-08-26T09:24:28.901Z,5.73
2022-08-26T09:26:59.155Z,4.33
2022-08-26T09:29:29.243Z,5.13
2022-08-26T09:32:19.590Z,4.70
2022-08-26T09:34:59.008Z,5.07
2022-08-26T09:37:39.142Z,5.47
2022-08-26T09:40:28.437Z,5.03
2022-08-26T09:43:16.044Z,4.50
2022-08-26T09:45:58.485Z,4.17
2022-08-26T09:48:31.211Z,4.63
2022-08-26T09:51:02.543Z,5.13
2022-08-26T09:53:36.625Z,5.63
2022-08-26T09:56:16.224Z,5.40
2022-08-26T09:58:47.191Z,5.77
2022-08-26T10:01:30.094Z,4.80
2022-08-26T10:04:08.426Z,5.50
2022-08-26T10:06:41.271Z,4.73
2022-08-26T10:09:15.167Z,5.23
2022-08-26T10:11:48.894Z,5.37
2022-08-26T10:14:22.212Z,4.93
2022-08-26T10:16:56.444Z,5.17
2022-08-26T10:19:41.805Z,4.97
2022-08-26T10:22:21.932Z,4.80
2022-08-26T10:24:57.044Z,5.60
2022-08-26T10:27:34.040Z,5.33
2022-08-26T10:30:08.124Z,4.87
2022-08-26T10:32:41.989Z,4.40
2022-08-26T10:35:13.260Z,5.70
2022-08-26T10:37:45.398Z,5.10
2022-08-26T10:40:19.569Z,4.90
2022-08-26T10:42:54.227Z,5.70
2022-08-26T10:45:26.711Z,5.47
2022-08-26T10:47:58.695Z,5.50
2022-08-26T10:50:31.889Z,5.30
2022-08-26T10:53:09.325Z,5.30
2022-08-26T10:55:47.253Z,5.60
2022-08-26T10:58:37.125Z,4.60
2022-08-26T11:01:31.822Z,5.80
2022-08-26T11:04:07.836Z,5.27
2022-08-26T11:06:37.076Z,5.50
2022-08-26T11:09:07.782Z,5.47
2022-08-26T11:11:50.981Z,6.50
2022-08-26T11:14:46.092Z,5.90
2022-08-26T11:17:57.049Z,5.77
2022-08-26T11:20:39.238Z,6.10
2022-08-26T11:23:50.446Z,6.13
2022-08-26T11:26:37.611Z,5.97
2022-08-26T11:29:13.569Z,6.00
2022-08-26T11:32:02.856Z,5.87
2022-08-26T11:34:56.377Z,5.33
2022-08-26T11:37:36.057Z,5.90
2022-08-26T11:40:11.136Z,6.30
2022-08-26T11:42:43.141Z,6.57
2022-08-26T11:45:23.602Z,7.13
2022-08-26T11:47:52.110Z,5.87
2022-08-26T11:50:23.391Z,5.50
2022-08-26T11:53:01.603Z,6.50
2022-08-26T11:55:30.814Z,6.50
2022-08-26T11:58:01.979Z,6.83
2022-08-26T12:00:38.840Z,5.97
2022-08-26T12:03:19.363Z,6.00
2022-08-26T12:05:50.244Z,5.17
2022-08-26T12:08:21.723Z,5.60
2022-08-26T12:10:50.075Z,5.83
2022-08-26T12:13:23.176Z,5.60
2022-08-26T12:15:57.421Z,5.57
2022-08-26T12:18:29.721Z,5.67
2022-08-26T12:21:01.483Z,5.67
2022-08-26T12:23:43.316Z,4.90
2022-08-26T12:26:19.434Z,4.97
2022-08-26T12:28:49.730Z,5.30
2022-08-26T12:31:25.980Z,5.67
2022-08-26T12:33:55.258Z,6.07
2022-08-26T12:36:27.535Z,6.00
2022-08-26T12:38:58.439Z,4.87
2022-08-26T12:41:49.464Z,5.53
2022-08-26T12:44:39.819Z,5.10
2022-08-26T12:47:13.275Z,5.67
2022-08-26T12:49:44.221Z,4.03
2022-08-26T12:52:30.031Z,5.07
2022-08-26T12:55:00.623Z,5.07
2022-08-26T12:57:32.019Z,5.40
2022-08-26T13:00:40.831Z,5.80
2022-08-26T13:03:33.260Z,5.50
2022-08-26T13:06:15.517Z,5.93
2022-08-26T13:08:45.210Z,5.00
2022-08-26T13:11:20.091Z,5.97
2022-08-26T13:13:50.489Z,6.40
2022-08-26T13:16:19.944Z,5.27
2022-08-26T13:18:51.463Z,5.97
2022-08-26T13:21:21.815Z,5.67
2022-08-26T13:23:52.067Z,6.23
2022-08-26T13:26:21.311Z,5.57
2022-08-26T13:29:01.205Z,5.70
2022-08-26T13:31:32.464Z,6.57
2022-08-26T13:34:03.616Z,5.40
2022-08-26T13:36:32.544Z,5.70
2022-08-26T13:39:00.729Z,6.00
2022-08-26T13:41:29.866Z,6.90
2022-08-26T13:43:59.485Z,6.20
2022-08-26T13:46:28.297Z,5.93
2022-08-26T13:48:56.616Z,6.57
2022-08-26T13:51:27.946Z,6.10
2022-08-26T13:53:56.427Z,6.90
2022-08-26T13:56:27.419Z,5.90
2022-08-26T13:58:56.342Z,7.07
2022-08-26T14:01:25.290Z,7.10
2022-08-26T14:03:54.111Z,7.10
2022-08-26T14:06:22.579Z,7.73
2022-08-26T14:08:52.744Z,6.57
2022-08-26T14:11:21.358Z,8.00
2022-08-26T14:13:50.390Z,8.37
2022-08-26T14:16:23.722Z,9.47
2022-08-26T14:18:53.015Z,10.07
2022-08-26T14:21:21.741Z,9.93
2022-08-26T14:23:51.576Z,9.40
2022-08-26T14:26:28.362Z,8.90
2022-08-26T14:28:58.098Z,10.03
2022-08-26T14:31:27.027Z,10.20
2022-08-26T14:33:57.902Z,9.33
2022-08-26T14:36:32.665Z,9.50
2022-08-26T14:39:06.692Z,8.57
2022-08-26T14:41:38.255Z,8.80
2022-08-26T14:44:11.838Z,10.10
2022-08-26T14:46:44.845Z,9.47
2022-08-26T14:49:13.988Z,10.07
2022-08-26T14:51:42.577Z,8.40
2022-08-26T14:54:12.809Z,9.43
2022-08-26T14:56:45.951Z,8.33
2022-08-26T14:59:15.348Z,6.03
2022-08-26T15:01:43.635Z,6.10
2022-08-26T15:04:12.177Z,5.40
2022-08-26T15:06:40.691Z,6.60
2022-08-26T15:09:09.723Z,6.30
2022-08-26T15:11:39.976Z,8.93
2022-08-26T15:14:08.475Z,7.40
2022-08-26T15:16:47.887Z,7.63
2022-08-26T15:19:16.675Z,8.50
2022-08-26T15:21:45.656Z,6.77
2022-08-26T15:24:14.893Z,7.33
2022-08-26T15:26:45.902Z,7.63
2022-08-26T15:29:14.570Z,7.90
2022-08-26T15:31:43.270Z,9.00
2022-08-26T15:34:16.715Z,7.23
2022-08-26T15:36:46.827Z,7.33
2022-08-26T15:39:16.564Z,6.73
2022-08-26T15:41:46.491Z,7.77
2022-08-26T15:44:17.733Z,6.97
2022-08-26T15:46:46.461Z,6.90
2022-08-26T15:49:17.615Z,7.40
2022-08-26T15:51:49.138Z,7.60
2022-08-26T15:54:20.650Z,7.00
2022-08-26T15:56:53.094Z,7.50
2022-08-26T15:59:23.009Z,7.50
2022-08-26T16:01:52.639Z,7.80
2022-08-26T16:04:21.561Z,7.57
2022-08-26T16:06:52.153Z,7.87
2022-08-26T16:09:21.242Z,6.93
2022-08-26T16:11:51.131Z,7.90
2022-08-26T16:14:19.268Z,7.90
2022-08-26T16:16:47.686Z,7.30
2022-08-26T16:19:16.483Z,7.20
2022-08-26T16:21:45.497Z,7.23
2022-08-26T16:24:14.282Z,8.70
2022-08-26T16:26:43.930Z,9.10
2022-08-26T16:29:15.471Z,8.77
2022-08-26T16:31:43.770Z,8.13
2022-08-26T16:34:12.518Z,9.40
2022-08-26T16:36:41.342Z,8.10
2022-08-26T16:39:10.698Z,6.60
2022-08-26T16:41:39.121Z,7.10
2022-08-26T16:44:08.679Z,6.30
2022-08-26T16:46:39.664Z,7.00
2022-08-26T16:49:08.076Z,8.27
2022-08-26T16:51:38.046Z,5.77
2022-08-26T16:54:07.530Z,7.87
2022-08-26T16:56:36.189Z,8.20
2022-08-26T16:59:05.807Z,8.00
2022-08-26T17:01:34.159Z,9.00
2022-08-26T17:04:04.187Z,8.50
2022-08-26T17:06:33.099Z,8.30
2022-08-26T17:09:01.480Z,8.30
2022-08-26T17:11:30.004Z,8.40
2022-08-26T17:13:58.138Z,10.00
2022-08-26T17:16:27.128Z,10.13
2022-08-26T17:18:56.927Z,13.00
2022-08-26T17:21:27.983Z,13.53
2022-08-26T17:23:57.332Z,10.40
2022-08-26T17:26:25.690Z,17.00
2022-08-26T17:28:54.268Z,14.33
2022-08-26T17:31:23.757Z,7.53
2022-08-26T17:33:53.537Z,7.73
2022-08-26T17:36:28.056Z,13.60
2022-08-26T17:38:59.064Z,10.87
2022-08-26T17:41:28.335Z,10.40
2022-08-26T17:43:57.092Z,11.23
2022-08-26T17:46:25.780Z,11.73
2022-08-26T17:48:54.297Z,10.40
2022-08-26T17:51:23.625Z,9.33
2022-08-26T17:53:52.739Z,7.57
2022-08-26T17:56:30.103Z,5.80
2022-08-26T17:59:02.330Z,7.17
2022-08-26T18:01:32.783Z,6.90
2022-08-26T18:04:01.556Z,6.93
2022-08-26T18:06:30.580Z,6.90
2022-08-26T18:08:59.605Z,8.23
2022-08-26T18:11:30.229Z,7.77
2022-08-26T18:13:58.584Z,8.23
2022-08-26T18:16:27.223Z,8.93
2022-08-26T18:18:55.731Z,8.23
2022-08-26T18:21:27.324Z,7.43
2022-08-26T18:23:55.857Z,7.83
2022-08-26T18:26:26.404Z,7.87
2022-08-26T18:28:56.448Z,7.80
2022-08-26T18:31:25.007Z,6.90
2022-08-26T18:33:53.787Z,6.97
2022-08-26T18:36:25.125Z,7.70
2022-08-26T18:38:54.101Z,7.57
2022-08-26T18:41:25.098Z,7.97
2022-08-26T18:43:55.987Z,6.70
2022-08-26T18:46:26.391Z,7.00
2022-08-26T18:48:56.318Z,7.93
2022-08-26T18:51:30.317Z,7.67
2022-08-26T18:53:59.528Z,7.47
2022-08-26T18:56:28.782Z,7.33
2022-08-26T18:58:59.887Z,7.53
2022-08-26T19:01:29.363Z,7.20
2022-08-26T19:03:58.611Z,8.43
2022-08-26T19:06:28.277Z,7.20
2022-08-26T19:08:57.959Z,8.40
2022-08-26T19:11:32.163Z,10.47
2022-08-26T19:14:03.017Z,9.37
2022-08-26T19:16:31.780Z,9.30
2022-08-26T19:19:01.370Z,9.10
2022-08-26T19:21:30.709Z,9.23
2022-08-26T19:23:59.729Z,9.23
2022-08-26T19:26:29.741Z,8.27
2022-08-26T19:28:57.992Z,9.33
2022-08-26T19:31:28.204Z,8.37
2022-08-26T19:33:58.010Z,10.07
2022-08-26T19:36:27.907Z,11.90
2022-08-26T19:38:57.318Z,10.73
2022-08-26T19:41:37.224Z,11.63
2022-08-26T19:44:08.139Z,11.97
2022-08-26T19:49:06.792Z,9.40
2022-08-26T19:51:36.521Z,9.77
2022-08-26T19:54:05.523Z,10.40
2022-08-26T19:56:35.116Z,9.63
2022-08-26T19:59:03.391Z,10.80
2022-08-26T20:01:31.883Z,12.10
2022-08-26T20:04:01.589Z,17.40
2022-08-26T20:06:29.983Z,14.17
2022-08-26T20:08:58.682Z,12.30
2022-08-26T20:11:27.036Z,11.30
2022-08-26T20:13:55.297Z,10.20
2022-08-26T20:16:23.809Z,10.33
2022-08-26T20:19:09.206Z,11.07
2022-08-26T20:21:41.386Z,11.70
2022-08-26T20:24:12.510Z,9.03
2022-08-26T20:26:42.464Z,10.43
2022-08-26T20:29:12.070Z,11.13
2022-08-26T20:31:41.044Z,11.50
2022-08-26T20:34:09.373Z,9.97
2022-08-26T20:36:41.324Z,10.57
2022-08-26T20:39:10.778Z,9.30
2022-08-26T20:41:40.063Z,9.07
2022-08-26T20:44:09.494Z,8.23
2022-08-26T20:46:38.707Z,8.33
2022-08-26T20:49:07.751Z,8.40
2022-08-26T20:51:37.624Z,8.90
2022-08-26T20:54:08.812Z,7.67
2022-08-26T20:56:37.512Z,9.27
2022-08-26T20:59:08.249Z,8.90
2022-08-26T21:01:42.147Z,9.23
2022-08-26T21:04:13.065Z,9.20
2022-08-26T21:06:42.235Z,7.83
2022-08-26T21:09:17.682Z,9.40
2022-08-26T21:11:46.928Z,8.73
2022-08-26T21:14:16.971Z,8.40
2022-08-26T21:16:47.555Z,7.93
2022-08-26T21:19:19.895Z,8.30
2022-08-26T21:21:49.458Z,8.70
2022-08-26T21:24:19.027Z,8.67
2022-08-26T21:26:48.216Z,9.87
2022-08-26T21:29:16.535Z,7.90
2022-08-26T21:31:46.955Z,9.50
2022-08-26T21:34:16.094Z,9.13
2022-08-26T21:36:44.532Z,9.57
2022-08-26T21:39:13.189Z,9.67
2022-08-26T21:41:43.831Z,9.40
2022-08-26T21:44:13.719Z,8.70
2022-08-26T21:46:42.867Z,10.30
2022-08-26T21:49:13.369Z,10.10
2022-08-26T21:51:44.292Z,8.67
2022-08-26T21:54:13.438Z,9.40
2022-08-26T21:56:47.016Z,9.40
2022-08-26T21:59:16.380Z,9.60
2022-08-26T22:01:44.758Z,9.40
2022-08-26T22:04:13.078Z,9.13
2022-08-26T22:06:44.265Z,8.97
2022-08-26T22:09:13.916Z,8.50
2022-08-26T22:11:43.868Z,10.80
2022-08-26T22:14:12.450Z,9.73
2022-08-26T22:16:40.922Z,9.67
2022-08-26T22:19:17.234Z,10.60
2022-08-26T22:21:45.738Z,10.53
2022-08-26T22:24:14.062Z,9.63
2022-08-26T22:26:43.665Z,10.27
2022-08-26T22:29:12.052Z,9.50
2022-08-26T22:31:40.466Z,10.37
2022-08-26T22:34:10.938Z,10.83
2022-08-26T22:36:44.160Z,10.37
2022-08-26T22:39:13.883Z,11.10
2022-08-26T22:41:44.456Z,9.67
2022-08-26T22:44:13.503Z,10.40
2022-08-26T22:46:43.896Z,9.53
2022-08-26T22:49:15.839Z,10.73
2022-08-26T22:51:44.992Z,11.00
2022-08-26T22:54:14.166Z,9.27
2022-08-26T22:56:44.991Z,9.53
2022-08-26T22:59:16.223Z,10.37
2022-08-26T23:01:46.816Z,10.67
2022-08-26T23:04:15.381Z,11.13
2022-08-26T23:06:47.271Z,10.10
2022-08-26T23:09:18.588Z,11.17
2022-08-26T23:11:49.869Z,9.60
2022-08-26T23:14:19.476Z,9.60
2022-08-26T23:16:47.841Z,10.40
2022-08-26T23:19:17.811Z,10.37
2022-08-26T23:21:46.552Z,9.57
2022-08-26T23:24:15.985Z,10.70
2022-08-26T23:26:45.179Z,10.47
2022-08-26T23:29:16.544Z,10.10
2022-08-26T23:31:45.594Z,9.83
2022-08-26T23:34:31.666Z,10.10
2022-08-26T23:37:00.999Z,10.47
2022-08-26T23:39:29.527Z,10.33
2022-08-26T23:41:58.090Z,9.80
2022-08-26T23:44:28.270Z,9.83
2022-08-26T23:46:56.994Z,9.93
2022-08-26T23:49:26.259Z,8.97
2022-08-26T23:52:12.460Z,10.50
2022-08-26T23:54:41.507Z,10.40
2022-08-26T23:57:09.963Z,10.70
2022-08-26T23:59:40.482Z,10.70
